TimeCDT,TemperatureF,Dew PointF,Humidity,Sea Level PressureIn,VisibilityMPH,Wind Direction,Wind SpeedMPH,Gust SpeedMPH,PrecipitationIn,Events,Conditions,WindDirDegrees,DateUTC
12:55 AM,41.0,34.0,76,30.36,10.0,West,6.9,-,N/A,,Clear,270,2012-10-06 05:55:00
1:55 AM,41.0,33.1,73,30.36,10.0,WNW,5.8,-,N/A,,Clear,300,2012-10-06 06:55:00
2:55 AM,39.9,33.1,77,30.35,10.0,NW,4.6,-,N/A,,Clear,320,2012-10-06 07:55:00
3:55 AM,39.9,32.0,73,30.33,10.0,NNW,4.6,-,N/A,,Clear,330,2012-10-06 08:55:00
4:55 AM,39.0,30.9,73,30.33,10.0,NNW,4.6,-,N/A,,Clear,340,2012-10-06 09:55:00
5:55 AM,39.0,28.9,67,30.33,10.0,NNW,4.6,-,N/A,,Clear,340,2012-10-06 10:55:00
6:55 AM,39.0,28.9,67,30.35,10.0,NNW,5.8,-,N/A,,Clear,340,2012-10-06 11:55:00
7:55 AM,39.0,28.0,65,30.37,10.0,North,4.6,-,N/A,,Clear,10,2012-10-06 12:55:00
8:55 AM,39.9,27.0,60,30.39,10.0,NNE,6.9,-,N/A,,Overcast,20,2012-10-06 13:55:00
9:55 AM,39.9,26.1,58,30.42,10.0,NNE,10.4,-,N/A,,Overcast,20,2012-10-06 14:55:00
10:55 AM,41.0,25.0,53,30.43,10.0,NNE,8.1,-,N/A,,Overcast,30,2012-10-06 15:55:00
11:55 AM,43.0,24.1,47,30.41,10.0,North,5.8,-,N/A,,Scattered Clouds,350,2012-10-06 16:55:00
12:55 PM,44.1,23.0,43,30.40,10.0,NNE,8.1,-,N/A,,Mostly Cloudy,20,2012-10-06 17:55:00
1:55 PM,48.0,21.9,36,30.36,10.0,North,9.2,-,N/A,,Clear,10,2012-10-06 18:55:00
2:55 PM,46.9,21.9,37,30.35,10.0,North,8.1,-,N/A,,Overcast,10,2012-10-06 19:55:00
3:55 PM,48.0,19.9,33,30.35,10.0,NW,10.4,-,N/A,,Overcast,310,2012-10-06 20:55:00
4:55 PM,46.4,19.4,34,30.32,10.0,NNW,13.8,-,N/A,,Overcast,330,2012-10-06 21:55:00
5:55 PM,46.0,19.0,34,30.35,10.0,NW,8.1,-,N/A,,Overcast,310,2012-10-06 22:55:00
6:55 PM,44.1,18.0,35,30.35,10.0,NNW,9.2,-,N/A,,Overcast,340,2012-10-06 23:55:00
7:55 PM,43.0,18.0,37,30.36,10.0,NNW,8.1,-,N/A,,Overcast,340,2012-10-07 00:55:00
8:55 PM,39.9,19.9,45,30.37,10.0,NW,9.2,-,N/A,,Mostly Cloudy,310,2012-10-07 01:55:00
9:55 PM,37.9,28.9,70,30.38,10.0,NW,9.2,-,N/A,,Clear,310,2012-10-07 02:55:00
10:55 PM,33.1,28.0,82,30.38,10.0,WNW,6.9,-,N/A,,Clear,290,2012-10-07 03:55:00
11:55 PM,32.0,28.0,85,30.38,10.0,WNW,6.9,-,N/A,,Clear,290,2012-10-07 04:55:00